createdAt,value
2018-08-30T00:01:36.309Z,99.90
2018-08-30T00:04:04.841Z,99.90
2018-08-30T00:06:32.964Z,99.90
2018-08-30T00:09:01.122Z,99.90
2018-08-30T00:11:29.003Z,99.90
2018-08-30T00:13:57.494Z,99.90
2018-08-30T00:16:25.450Z,99.90
2018-08-30T00:18:54.679Z,99.90
2018-08-30T00:21:23.314Z,99.90
2018-08-30T00:23:51.706Z,99.90
2018-08-30T00:26:19.866Z,99.90
2018-08-30T00:28:48.078Z,99.90
2018-08-30T00:31:16.343Z,99.90
2018-08-30T00:33:44.647Z,99.90
2018-08-30T00:36:12.609Z,99.90
2018-08-30T00:38:40.708Z,99.90
2018-08-30T00:41:08.973Z,99.90
2018-08-30T00:43:37.256Z,99.90
2018-08-30T00:46:05.887Z,99.90
2018-08-30T00:48:34.160Z,99.90
2018-08-30T00:51:02.023Z,99.90
2018-08-30T00:53:30.023Z,99.90
2018-08-30T00:55:58.010Z,99.90
2018-08-30T00:58:25.855Z,99.90
2018-08-30T01:00:54.051Z,99.90
2018-08-30T01:03:22.042Z,99.90
2018-08-30T01:05:50.368Z,99.90
2018-08-30T01:08:18.351Z,99.80
2018-08-30T01:10:46.633Z,99.80
2018-08-30T01:13:15.446Z,99.60
2018-08-30T01:15:43.808Z,99.40
2018-08-30T01:18:13.108Z,99.00
2018-08-30T01:20:40.965Z,99.30
2018-08-30T01:23:09.343Z,99.20
2018-08-30T01:25:37.819Z,99.50
2018-08-30T01:28:06.810Z,99.60
2018-08-30T01:30:35.740Z,99.60
2018-08-30T01:33:05.017Z,99.70
2018-08-30T01:35:33.260Z,99.70
2018-08-30T01:38:02.017Z,99.70
2018-08-30T01:40:30.336Z,99.80
2018-08-30T01:42:58.796Z,99.90
2018-08-30T01:45:27.147Z,99.90
2018-08-30T01:47:55.677Z,99.90
2018-08-30T01:50:23.948Z,99.90
2018-08-30T01:52:52.127Z,99.90
2018-08-30T01:55:20.552Z,99.90
2018-08-30T01:57:48.878Z,99.90
2018-08-30T02:00:17.122Z,99.90
2018-08-30T02:02:45.212Z,99.90
2018-08-30T02:05:13.489Z,99.90
2018-08-30T02:07:41.873Z,99.90
2018-08-30T02:10:10.202Z,99.90
2018-08-30T02:12:38.047Z,99.90
2018-08-30T02:15:06.278Z,99.90
2018-08-30T02:17:34.121Z,99.90
2018-08-30T02:20:02.306Z,99.90
2018-08-30T02:22:30.621Z,99.90
2018-08-30T02:24:58.680Z,99.90
2018-08-30T02:27:26.995Z,99.90
2018-08-30T02:29:55.294Z,99.90
2018-08-30T02:32:23.760Z,99.90
2018-08-30T02:34:52.473Z,99.90
2018-08-30T02:37:20.701Z,99.90
2018-08-30T02:39:49.077Z,99.90
2018-08-30T02:42:17.497Z,99.90
2018-08-30T02:44:45.617Z,99.90
2018-08-30T02:47:14.520Z,99.90
2018-08-30T02:49:42.839Z,99.90
2018-08-30T02:52:11.483Z,99.90
2018-08-30T02:54:40.110Z,99.90
2018-08-30T02:57:08.375Z,99.90
2018-08-30T02:59:36.718Z,99.90
2018-08-30T03:02:05.507Z,99.90
2018-08-30T03:04:33.984Z,99.90
2018-08-30T03:07:01.858Z,99.90
2018-08-30T03:09:29.738Z,99.90
2018-08-30T03:11:58.080Z,99.90
2018-08-30T03:14:26.106Z,99.90
2018-08-30T03:16:55.119Z,99.90
2018-08-30T03:19:23.223Z,99.90
2018-08-30T03:21:51.399Z,99.90
2018-08-30T03:24:19.536Z,99.90
2018-08-30T03:26:47.775Z,99.90
2018-08-30T03:29:15.889Z,99.90
2018-08-30T03:31:44.070Z,99.90
2018-08-30T03:34:12.334Z,99.90
2018-08-30T03:36:40.684Z,99.90
2018-08-30T03:39:08.491Z,99.90
2018-08-30T03:41:36.510Z,99.90
2018-08-30T03:44:04.576Z,99.90
2018-08-30T03:46:32.603Z,99.90
2018-08-30T03:49:00.667Z,99.90
2018-08-30T03:51:28.748Z,99.90
2018-08-30T03:53:56.963Z,99.90
2018-08-30T03:56:24.830Z,99.90
2018-08-30T03:58:52.960Z,99.90
2018-08-30T04:01:20.947Z,99.90
2018-08-30T04:03:48.793Z,99.90
2018-08-30T04:06:16.597Z,99.90
2018-08-30T04:08:44.563Z,99.90
2018-08-30T04:11:13.048Z,99.90
2018-08-30T04:13:41.125Z,99.90
2018-08-30T04:16:10.049Z,99.90
2018-08-30T04:18:38.281Z,99.90
2018-08-30T04:21:07.089Z,99.90
2018-08-30T04:23:35.216Z,99.90
2018-08-30T04:26:03.326Z,99.90
2018-08-30T04:28:32.168Z,99.90
2018-08-30T04:31:00.765Z,99.90
2018-08-30T04:33:30.756Z,99.90
2018-08-30T04:35:59.338Z,99.90
2018-08-30T04:38:28.334Z,99.90
2018-08-30T04:40:56.549Z,99.90
2018-08-30T04:43:24.649Z,99.90
2018-08-30T04:45:52.633Z,99.90
2018-08-30T04:48:20.865Z,99.90
2018-08-30T04:50:48.812Z,99.90
2018-08-30T04:53:16.962Z,99.90
2018-08-30T04:55:45.520Z,99.90
2018-08-30T04:58:13.606Z,99.90
2018-08-30T05:00:41.767Z,99.90
2018-08-30T05:03:10.590Z,99.90
2018-08-30T05:05:38.770Z,99.90
2018-08-30T05:08:06.713Z,99.90
2018-08-30T05:10:35.336Z,99.90
2018-08-30T05:13:03.152Z,99.90
2018-08-30T05:15:30.990Z,99.90
2018-08-30T05:17:58.990Z,99.90
2018-08-30T05:20:27.377Z,99.90
2018-08-30T05:22:55.271Z,99.90
2018-08-30T05:25:23.240Z,99.90
2018-08-30T05:27:52.750Z,99.90
2018-08-30T05:30:21.353Z,99.90
2018-08-30T05:32:49.500Z,99.90
2018-08-30T05:35:17.988Z,99.90
2018-08-30T05:37:47.529Z,99.90
2018-08-30T05:40:16.843Z,99.90
2018-08-30T05:42:45.442Z,99.90
2018-08-30T05:45:14.185Z,99.90
2018-08-30T05:47:42.554Z,99.90
2018-08-30T05:50:11.213Z,99.90
2018-08-30T05:52:40.034Z,99.90
2018-08-30T05:55:08.305Z,99.90
2018-08-30T05:57:37.506Z,99.90
2018-08-30T06:00:06.708Z,99.90
2018-08-30T06:02:34.998Z,99.90
2018-08-30T06:05:03.812Z,99.90
2018-08-30T06:07:31.925Z,99.90
2018-08-30T06:10:00.519Z,99.90
2018-08-30T06:12:29.278Z,99.90
2018-08-30T06:14:58.096Z,99.90
2018-08-30T06:17:26.856Z,99.90
2018-08-30T06:19:55.804Z,99.90
2018-08-30T06:22:24.508Z,99.90
2018-08-30T06:24:53.152Z,99.90
2018-08-30T06:27:30.929Z,99.90
2018-08-30T06:29:59.855Z,99.90
2018-08-30T06:32:28.772Z,99.90
2018-08-30T06:34:57.094Z,99.90
2018-08-30T06:37:25.017Z,99.90
2018-08-30T06:39:52.982Z,99.90
2018-08-30T06:42:21.099Z,99.90
2018-08-30T06:44:49.226Z,99.90
2018-08-30T06:47:17.083Z,99.90
2018-08-30T06:49:46.424Z,99.90
2018-08-30T06:52:15.438Z,99.90
2018-08-30T06:54:44.274Z,99.90
2018-08-30T06:57:13.109Z,99.90
2018-08-30T06:59:41.801Z,99.90
2018-08-30T07:02:10.978Z,99.90
2018-08-30T07:04:40.194Z,99.90
2018-08-30T07:07:08.478Z,99.90
2018-08-30T07:09:36.844Z,99.90
2018-08-30T07:12:05.152Z,99.90
2018-08-30T07:14:33.917Z,99.90
2018-08-30T07:17:02.199Z,99.90
2018-08-30T07:19:30.563Z,99.90
2018-08-30T07:21:58.904Z,99.90
2018-08-30T07:24:27.311Z,99.90
2018-08-30T07:26:56.692Z,99.90
2018-08-30T07:29:25.757Z,99.90
2018-08-30T07:31:55.218Z,99.90
2018-08-30T07:34:24.092Z,99.90
2018-08-30T07:36:54.116Z,99.90
2018-08-30T07:39:23.039Z,99.90
2018-08-30T07:41:51.777Z,99.90
2018-08-30T07:44:19.654Z,99.90
2018-08-30T07:46:48.530Z,99.90
2018-08-30T07:49:17.378Z,99.90
2018-08-30T07:51:45.773Z,99.90
2018-08-30T07:54:14.550Z,99.90
2018-08-30T07:56:44.013Z,99.90
2018-08-30T07:59:12.294Z,99.90
2018-08-30T08:01:40.308Z,99.90
2018-08-30T08:04:08.275Z,99.90
2018-08-30T08:06:37.668Z,99.90
2018-08-30T08:09:07.420Z,99.90
2018-08-30T08:11:35.754Z,99.90
2018-08-30T08:14:03.932Z,99.90
2018-08-30T08:16:32.004Z,99.90
2018-08-30T08:19:00.164Z,99.90
2018-08-30T08:21:28.906Z,99.90
2018-08-30T08:23:57.210Z,99.90
2018-08-30T08:26:25.458Z,99.90
2018-08-30T08:28:53.540Z,99.90
2018-08-30T08:31:21.709Z,99.90
2018-08-30T08:33:49.766Z,99.90
2018-08-30T08:36:18.045Z,99.90
2018-08-30T08:38:46.487Z,99.90
2018-08-30T08:41:14.569Z,99.90
2018-08-30T08:43:43.550Z,99.90
2018-08-30T08:46:12.202Z,99.90
2018-08-30T08:48:42.294Z,99.90
2018-08-30T08:51:10.607Z,99.90
2018-08-30T08:53:39.382Z,99.90
2018-08-30T08:56:07.854Z,99.90
2018-08-30T08:58:36.782Z,99.90
2018-08-30T09:01:05.229Z,99.90
2018-08-30T09:03:33.767Z,99.90
2018-08-30T09:06:01.942Z,99.90
2018-08-30T09:08:30.979Z,99.90
2018-08-30T09:10:59.052Z,99.90
2018-08-30T09:13:28.291Z,99.90
2018-08-30T09:15:56.324Z,99.90
2018-08-30T09:18:25.588Z,99.90
2018-08-30T09:23:40.537Z,99.90
2018-08-30T09:26:08.651Z,99.90
2018-08-30T09:28:36.793Z,99.90
2018-08-30T09:33:58.538Z,99.90
2018-08-30T09:39:18.598Z,99.90
2018-08-30T09:41:49.806Z,99.90
2018-08-30T09:47:05.693Z,99.90
2018-08-30T09:49:39.206Z,99.90
2018-08-30T09:54:55.171Z,99.90
2018-08-30T09:57:24.111Z,99.90
2018-08-30T09:59:52.149Z,99.90
2018-08-30T10:02:28.183Z,99.90
2018-08-30T10:05:02.145Z,99.90
2018-08-30T10:10:22.987Z,99.90
2018-08-30T10:12:53.195Z,99.90
2018-08-30T10:21:00.784Z,99.90
2018-08-30T10:26:18.714Z,99.90
2018-08-30T10:31:33.723Z,99.90
2018-08-30T10:34:10.982Z,99.90
2018-08-30T10:36:42.030Z,99.90
2018-08-30T10:42:01.911Z,99.90
2018-08-30T10:47:21.870Z,99.90
2018-08-30T10:49:56.480Z,99.90
2018-08-30T10:52:24.908Z,99.90
2018-08-30T10:54:54.752Z,99.90
2018-08-30T10:57:23.619Z,99.90
2018-08-30T10:59:52.765Z,99.90
2018-08-30T11:02:25.613Z,99.90
2018-08-30T11:04:53.729Z,99.90
2018-08-30T11:07:21.871Z,99.90
2018-08-30T11:09:50.407Z,99.90
2018-08-30T11:12:18.587Z,99.90
2018-08-30T11:14:46.477Z,99.90
2018-08-30T11:17:15.862Z,99.90
2018-08-30T11:19:44.027Z,99.90
2018-08-30T11:22:12.123Z,99.90
2018-08-30T11:24:40.229Z,99.90
2018-08-30T11:27:08.079Z,99.90
2018-08-30T11:29:36.349Z,99.90
2018-08-30T11:32:04.906Z,99.90
2018-08-30T11:34:32.924Z,99.90
2018-08-30T11:37:01.129Z,99.90
2018-08-30T11:39:29.360Z,99.90
2018-08-30T11:41:58.081Z,99.90
2018-08-30T11:44:26.510Z,99.90
2018-08-30T11:46:54.755Z,99.90
2018-08-30T11:49:22.761Z,99.90
2018-08-30T11:51:51.125Z,99.90
2018-08-30T11:54:19.225Z,99.90
2018-08-30T11:56:47.271Z,99.90
2018-08-30T11:59:15.764Z,99.90
2018-08-30T12:01:43.984Z,99.90
2018-08-30T12:04:12.119Z,99.90
2018-08-30T12:06:40.279Z,99.90
2018-08-30T12:09:09.624Z,99.90
2018-08-30T12:11:38.616Z,99.90
2018-08-30T12:14:06.499Z,99.90
2018-08-30T12:16:35.102Z,99.90
2018-08-30T12:19:03.392Z,99.90
2018-08-30T12:21:31.655Z,99.90
2018-08-30T12:23:59.874Z,99.90
2018-08-30T12:26:27.994Z,99.90
2018-08-30T12:28:56.187Z,99.90
2018-08-30T12:31:25.306Z,99.90
2018-08-30T12:33:53.696Z,99.90
2018-08-30T12:36:24.100Z,99.90
2018-08-30T12:38:52.271Z,99.90
2018-08-30T12:41:20.502Z,99.90
2018-08-30T12:43:48.830Z,99.90
2018-08-30T12:46:17.591Z,99.90
2018-08-30T12:48:46.408Z,99.90
2018-08-30T12:51:14.799Z,99.90
2018-08-30T12:53:42.684Z,99.90
2018-08-30T12:56:11.097Z,99.90
2018-08-30T12:58:39.341Z,99.90
2018-08-30T13:01:08.584Z,99.90
2018-08-30T13:03:36.833Z,99.90
2018-08-30T13:06:05.991Z,99.90
2018-08-30T13:08:34.309Z,99.90
2018-08-30T13:11:03.339Z,99.90
2018-08-30T13:13:34.063Z,99.90
2018-08-30T13:16:02.499Z,99.90
2018-08-30T13:18:31.527Z,99.90
2018-08-30T13:21:00.664Z,99.90
2018-08-30T13:23:29.132Z,99.90
2018-08-30T13:25:57.736Z,99.90
2018-08-30T13:28:27.581Z,99.90
2018-08-30T13:30:56.588Z,99.90
2018-08-30T13:33:25.222Z,99.90
2018-08-30T13:35:54.096Z,99.90
2018-08-30T13:38:22.468Z,99.90
2018-08-30T13:40:50.827Z,99.90
2018-08-30T13:43:19.184Z,99.90
2018-08-30T13:45:47.336Z,99.90
2018-08-30T13:48:15.683Z,99.90
2018-08-30T13:50:45.481Z,99.90
2018-08-30T13:53:14.153Z,99.90
2018-08-30T13:55:42.792Z,99.90
2018-08-30T13:58:21.728Z,99.90
2018-08-30T14:00:53.214Z,99.90
2018-08-30T14:03:25.593Z,99.90
2018-08-30T14:05:54.329Z,99.90
2018-08-30T14:08:23.359Z,99.90
2018-08-30T14:10:51.321Z,99.90
2018-08-30T14:19:05.336Z,99.90
2018-08-30T14:21:33.904Z,99.90
2018-08-30T14:24:09.176Z,99.90
2018-08-30T14:29:23.917Z,99.90
2018-08-30T14:31:56.140Z,99.90
2018-08-30T14:34:26.585Z,99.90
2018-08-30T14:36:54.931Z,99.90
2018-08-30T14:39:27.912Z,99.90
2018-08-30T14:42:04.130Z,99.90
2018-08-30T14:44:34.028Z,99.90
2018-08-30T14:49:50.589Z,99.90
2018-08-30T14:52:19.401Z,99.90
2018-08-30T14:54:47.467Z,99.90
2018-08-30T14:57:16.802Z,99.90
2018-08-30T14:59:46.061Z,99.90
2018-08-30T15:02:14.487Z,99.90
2018-08-30T15:04:43.477Z,99.90
2018-08-30T15:10:09.123Z,99.90
2018-08-30T15:12:38.209Z,99.90
2018-08-30T15:15:06.334Z,99.90
2018-08-30T15:17:34.537Z,99.90
2018-08-30T15:20:02.758Z,99.90
2018-08-30T15:22:30.792Z,99.90
2018-08-30T15:24:59.101Z,99.90
2018-08-30T15:27:27.253Z,99.90
2018-08-30T15:29:55.818Z,99.90
2018-08-30T15:32:24.085Z,99.90
2018-08-30T15:34:53.034Z,99.90
2018-08-30T15:37:21.448Z,99.90
2018-08-30T15:39:51.088Z,99.90
2018-08-30T15:42:19.931Z,99.90
2018-08-30T15:44:48.503Z,99.90
2018-08-30T15:47:17.189Z,99.90
2018-08-30T15:49:45.606Z,99.90
2018-08-30T15:52:13.949Z,99.90
2018-08-30T15:54:42.170Z,99.90
2018-08-30T15:57:10.820Z,99.90
2018-08-30T15:59:39.066Z,99.90
2018-08-30T16:02:07.516Z,99.90
2018-08-30T16:04:35.555Z,99.90
2018-08-30T16:07:03.914Z,99.90
2018-08-30T16:09:33.455Z,99.90
2018-08-30T16:12:02.333Z,99.90
2018-08-30T16:14:31.013Z,99.90
2018-08-30T16:16:59.293Z,99.90
2018-08-30T16:19:27.565Z,99.90
2018-08-30T16:21:55.683Z,99.90
2018-08-30T16:24:23.928Z,99.90
2018-08-30T16:26:52.304Z,99.90
2018-08-30T16:29:20.717Z,99.90
2018-08-30T16:31:49.028Z,99.90
2018-08-30T16:34:17.581Z,99.90
2018-08-30T16:36:46.157Z,99.90
2018-08-30T16:39:14.679Z,99.90
2018-08-30T16:41:43.021Z,99.90
2018-08-30T16:44:11.064Z,99.90
2018-08-30T16:46:39.203Z,99.90
2018-08-30T16:49:07.954Z,99.90
2018-08-30T16:51:36.173Z,99.90
2018-08-30T16:54:04.504Z,99.90
2018-08-30T16:56:33.572Z,99.90
2018-08-30T16:59:01.691Z,99.90
2018-08-30T17:01:29.806Z,99.90
2018-08-30T17:03:58.041Z,99.90
2018-08-30T17:06:26.071Z,99.90
2018-08-30T17:08:54.258Z,99.90
2018-08-30T17:11:22.446Z,99.90
2018-08-30T17:13:50.558Z,99.90
2018-08-30T17:16:19.040Z,99.90
2018-08-30T17:18:48.077Z,99.90
2018-08-30T17:21:16.409Z,99.90
2018-08-30T17:23:44.675Z,99.90
2018-08-30T17:26:13.360Z,99.90
2018-08-30T17:28:43.421Z,99.90
2018-08-30T17:36:08.862Z,99.90
2018-08-30T17:38:37.330Z,99.90
2018-08-30T17:41:05.532Z,99.90
2018-08-30T17:43:34.869Z,99.90
2018-08-30T17:46:03.975Z,99.90
2018-08-30T17:48:32.832Z,99.90
2018-08-30T17:51:02.514Z,99.90
2018-08-30T17:53:31.401Z,99.90
2018-08-30T17:56:00.625Z,99.90
2018-08-30T17:58:29.790Z,99.90
2018-08-30T18:00:59.073Z,99.90
2018-08-30T18:03:27.572Z,99.90
2018-08-30T18:05:55.917Z,99.90
2018-08-30T18:08:25.372Z,99.90
2018-08-30T18:10:53.697Z,99.90
2018-08-30T18:13:21.945Z,99.90
2018-08-30T18:15:50.666Z,99.90
2018-08-30T18:18:18.781Z,99.90
2018-08-30T18:20:47.294Z,99.90
2018-08-30T18:23:15.220Z,99.90
2018-08-30T18:25:44.466Z,99.90
2018-08-30T18:28:12.584Z,99.90
2018-08-30T18:30:42.860Z,99.90
2018-08-30T18:33:11.295Z,99.90
2018-08-30T18:35:39.722Z,99.90
2018-08-30T18:38:07.819Z,99.90
2018-08-30T18:40:35.619Z,99.90
2018-08-30T18:43:03.376Z,99.90
2018-08-30T18:45:31.159Z,99.90
2018-08-30T18:47:59.073Z,99.90
2018-08-30T18:50:27.941Z,99.90
2018-08-30T18:52:55.683Z,99.90
2018-08-30T18:55:23.443Z,99.90
2018-08-30T18:57:51.822Z,99.90
2018-08-30T19:00:21.323Z,99.90
2018-08-30T19:02:52.281Z,99.90
2018-08-30T19:05:28.954Z,99.90
2018-08-30T19:07:56.806Z,99.90
2018-08-30T19:10:28.174Z,99.90
2018-08-30T19:12:56.546Z,99.90
2018-08-30T19:18:27.738Z,99.90
2018-08-30T19:21:03.074Z,99.90
2018-08-30T19:23:34.318Z,99.90
2018-08-30T19:26:03.468Z,99.90
2018-08-30T19:28:31.807Z,99.90
2018-08-30T19:33:47.406Z,99.90
2018-08-30T19:36:22.269Z,99.90
2018-08-30T19:38:51.421Z,99.90
2018-08-30T19:41:25.497Z,99.90
2018-08-30T19:43:55.790Z,99.90
2018-08-30T19:46:24.074Z,99.90
2018-08-30T19:48:52.759Z,99.90
2018-08-30T19:51:20.480Z,99.90
2018-08-30T19:53:50.807Z,99.90
2018-08-30T19:59:03.914Z,99.90
2018-08-30T20:01:33.786Z,99.90
2018-08-30T20:04:02.817Z,99.90
2018-08-30T20:06:30.586Z,99.90
2018-08-30T20:09:01.470Z,99.90
2018-08-30T20:11:30.594Z,99.90
2018-08-30T20:16:41.646Z,99.90
2018-08-30T20:19:10.824Z,99.90
2018-08-30T20:21:45.503Z,99.90
2018-08-30T20:24:14.484Z,99.90
2018-08-30T20:26:44.066Z,99.90
2018-08-30T20:29:13.165Z,99.90
2018-08-30T20:31:42.151Z,99.90
2018-08-30T20:34:11.398Z,99.90
2018-08-30T20:36:39.304Z,99.90
2018-08-30T20:39:07.182Z,99.90
2018-08-30T20:41:39.437Z,99.90
2018-08-30T20:44:15.868Z,99.90
2018-08-30T20:46:43.714Z,99.90
2018-08-30T20:49:12.912Z,99.90
2018-08-30T20:51:40.758Z,99.90
2018-08-30T20:54:09.456Z,99.90
2018-08-30T20:56:37.445Z,99.90
2018-08-30T20:59:05.191Z,99.90
2018-08-30T21:01:33.289Z,99.90
2018-08-30T21:04:01.268Z,99.90
2018-08-30T21:06:30.028Z,99.90
2018-08-30T21:08:58.204Z,99.90
2018-08-30T21:11:26.300Z,99.90
2018-08-30T21:13:55.901Z,99.90
2018-08-30T21:16:25.550Z,99.90
2018-08-30T21:18:55.265Z,99.90
2018-08-30T21:21:23.712Z,99.90
2018-08-30T21:23:51.849Z,99.90
2018-08-30T21:26:20.258Z,99.90
2018-08-30T21:28:48.550Z,99.90
2018-08-30T21:31:16.822Z,99.90
2018-08-30T21:33:46.579Z,99.90
2018-08-30T21:36:16.708Z,99.90
2018-08-30T21:38:45.919Z,99.90
2018-08-30T21:41:13.917Z,99.90
2018-08-30T21:43:42.659Z,99.90
2018-08-30T21:46:10.816Z,99.90
2018-08-30T21:48:38.818Z,99.90
2018-08-30T21:51:06.788Z,99.90
2018-08-30T21:53:35.055Z,99.90
2018-08-30T21:56:03.135Z,99.90
2018-08-30T21:58:31.221Z,99.90
2018-08-30T22:00:59.246Z,99.90
2018-08-30T22:03:27.863Z,99.90
2018-08-30T22:05:56.196Z,99.90
2018-08-30T22:08:24.169Z,99.90
2018-08-30T22:10:52.783Z,99.90
2018-08-30T22:13:21.044Z,99.90
2018-08-30T22:15:49.421Z,99.90
2018-08-30T22:18:17.654Z,99.90
2018-08-30T22:20:45.678Z,99.90
2018-08-30T22:23:13.693Z,99.90
2018-08-30T22:25:41.582Z,99.90
2018-08-30T22:28:09.671Z,99.90
2018-08-30T22:30:37.845Z,99.90
2018-08-30T22:33:06.681Z,99.90
2018-08-30T22:40:29.950Z,99.90
2018-08-30T22:42:58.546Z,99.90
2018-08-30T22:45:27.208Z,99.90
2018-08-30T22:47:55.225Z,99.90
2018-08-30T22:50:23.659Z,99.90
2018-08-30T22:52:52.374Z,99.90
2018-08-30T22:55:20.815Z,99.90
2018-08-30T22:57:49.197Z,99.90
2018-08-30T23:00:17.105Z,99.90
2018-08-30T23:02:45.301Z,99.90
2018-08-30T23:05:13.541Z,99.90
2018-08-30T23:07:43.290Z,99.90
2018-08-30T23:10:11.334Z,99.90
2018-08-30T23:12:39.397Z,99.90
2018-08-30T23:15:07.523Z,99.90
2018-08-30T23:17:35.905Z,99.90
2018-08-30T23:20:04.097Z,99.90
2018-08-30T23:22:32.089Z,99.90
2018-08-30T23:25:01.030Z,99.90
2018-08-30T23:27:29.003Z,99.90
2018-08-30T23:29:56.848Z,99.90
2018-08-30T23:32:24.986Z,99.90
2018-08-30T23:34:53.145Z,99.90
2018-08-30T23:42:17.545Z,99.90
2018-08-30T23:44:45.513Z,99.90
2018-08-30T23:47:13.941Z,99.90
2018-08-30T23:49:42.200Z,99.90
2018-08-30T23:52:10.804Z,99.90
2018-08-30T23:54:38.622Z,99.90
2018-08-30T23:57:06.846Z,99.90
2018-08-30T23:59:40.454Z,99.90
